sensor_id;sensor_type;location;lat;lon;timestamp;pressure;altitude;pressure_sealevel;temperature;humidity
66273;BME280;58450;52.150;4.466;2023-01-13T00:00:24;100247.34;;;9.33;100.00
66273;BME280;58450;52.150;4.466;2023-01-13T00:02:52;100232.75;;;9.42;100.00
66273;BME280;58450;52.150;4.466;2023-01-13T00:05:19;100223.50;;;9.45;100.00
66273;BME280;58450;52.150;4.466;2023-01-13T00:07:46;100261.16;;;9.30;100.00
66273;BME280;58450;52.150;4.466;2023-01-13T00:10:15;100229.00;;;9.37;100.00
66273;BME280;58450;52.150;4.466;2023-01-13T00:12:42;100223.88;;;9.42;100.00
66273;BME280;58450;52.150;4.466;2023-01-13T00:15:10;100242.72;;;9.49;100.00
66273;BME280;58450;52.150;4.466;2023-01-13T00:17:40;100231.81;;;9.50;100.00
66273;BME280;58450;52.150;4.466;2023-01-13T00:20:09;100216.91;;;9.48;100.00
66273;BME280;58450;52.150;4.466;2023-01-13T00:22:37;100225.84;;;9.55;100.00
66273;BME280;58450;52.150;4.466;2023-01-13T00:25:05;100223.75;;;9.50;100.00
66273;BME280;58450;52.150;4.466;2023-01-13T00:27:34;100211.09;;;9.44;100.00
66273;BME280;58450;52.150;4.466;2023-01-13T00:30:02;100209.28;;;9.51;100.00
66273;BME280;58450;52.150;4.466;2023-01-13T00:32:30;100224.56;;;9.51;100.00
66273;BME280;58450;52.150;4.466;2023-01-13T00:34:59;100196.88;;;9.50;100.00
66273;BME280;58450;52.150;4.466;2023-01-13T00:37:27;100204.75;;;9.52;100.00
66273;BME280;58450;52.150;4.466;2023-01-13T00:39:54;100220.84;;;9.52;100.00
66273;BME280;58450;52.150;4.466;2023-01-13T00:42:22;100187.41;;;9.54;100.00
66273;BME280;58450;52.150;4.466;2023-01-13T00:45:08;100222.88;;;9.43;100.00
66273;BME280;58450;52.150;4.466;2023-01-13T00:47:35;100184.66;;;9.48;100.00
66273;BME280;58450;52.150;4.466;2023-01-13T00:50:05;100189.84;;;9.49;100.00
66273;BME280;58450;52.150;4.466;2023-01-13T00:52:32;100171.84;;;9.43;100.00
66273;BME280;58450;52.150;4.466;2023-01-13T00:55:00;100164.84;;;9.49;100.00
66273;BME280;58450;52.150;4.466;2023-01-13T00:57:27;100178.16;;;9.35;100.00
66273;BME280;58450;52.150;4.466;2023-01-13T00:59:55;100185.19;;;9.36;100.00
66273;BME280;58450;52.150;4.466;2023-01-13T01:02:22;100209.34;;;9.29;100.00
66273;BME280;58450;52.150;4.466;2023-01-13T01:04:50;100166.84;;;9.40;100.00
66273;BME280;58450;52.150;4.466;2023-01-13T01:07:18;100174.91;;;9.40;100.00
66273;BME280;58450;52.150;4.466;2023-01-13T01:09:46;100179.66;;;9.38;100.00
66273;BME280;58450;52.150;4.466;2023-01-13T01:12:15;100182.88;;;9.26;100.00
66273;BME280;58450;52.150;4.466;2023-01-13T01:14:42;100183.13;;;9.31;100.00
66273;BME280;58450;52.150;4.466;2023-01-13T01:17:10;100185.31;;;9.21;100.00
66273;BME280;58450;52.150;4.466;2023-01-13T01:19:37;100181.06;;;9.34;100.00
66273;BME280;58450;52.150;4.466;2023-01-13T01:22:05;100169.06;;;9.29;100.00
66273;BME280;58450;52.150;4.466;2023-01-13T01:24:34;100189.75;;;9.36;100.00
66273;BME280;58450;52.150;4.466;2023-01-13T01:27:01;100193.56;;;9.48;100.00
66273;BME280;58450;52.150;4.466;2023-01-13T01:29:29;100206.25;;;9.32;100.00
66273;BME280;58450;52.150;4.466;2023-01-13T01:31:57;100192.47;;;9.42;100.00
66273;BME280;58450;52.150;4.466;2023-01-13T01:34:24;100184.78;;;9.32;100.00
66273;BME280;58450;52.150;4.466;2023-01-13T01:36:52;100173.59;;;9.29;100.00
66273;BME280;58450;52.150;4.466;2023-01-13T01:39:19;100170.91;;;9.29;100.00
66273;BME280;58450;52.150;4.466;2023-01-13T01:41:48;100178.72;;;9.24;100.00
66273;BME280;58450;52.150;4.466;2023-01-13T01:44:52;100160.00;;;9.37;100.00
66273;BME280;58450;52.150;4.466;2023-01-13T01:47:26;100179.19;;;9.34;100.00
66273;BME280;58450;52.150;4.466;2023-01-13T01:49:57;100176.81;;;9.18;100.00
66273;BME280;58450;52.150;4.466;2023-01-13T01:52:29;100198.56;;;9.23;100.00
66273;BME280;58450;52.150;4.466;2023-01-13T01:55:04;100174.38;;;9.23;100.00
66273;BME280;58450;52.150;4.466;2023-01-13T01:57:39;100156.81;;;9.20;100.00
66273;BME280;58450;52.150;4.466;2023-01-13T02:00:11;100156.22;;;9.25;100.00
66273;BME280;58450;52.150;4.466;2023-01-13T02:02:40;100174.19;;;9.24;100.00
66273;BME280;58450;52.150;4.466;2023-01-13T02:05:11;100183.72;;;9.27;100.00
66273;BME280;58450;52.150;4.466;2023-01-13T02:07:41;100156.66;;;9.28;100.00
66273;BME280;58450;52.150;4.466;2023-01-13T02:10:15;100175.25;;;9.30;100.00
66273;BME280;58450;52.150;4.466;2023-01-13T02:12:46;100170.34;;;9.40;100.00
66273;BME280;58450;52.150;4.466;2023-01-13T02:15:17;100136.53;;;9.46;100.00
66273;BME280;58450;52.150;4.466;2023-01-13T02:18:22;100153.84;;;9.43;100.00
66273;BME280;58450;52.150;4.466;2023-01-13T02:21:26;100155.91;;;9.41;100.00
66273;BME280;58450;52.150;4.466;2023-01-13T02:27:56;100145.47;;;9.53;100.00
66273;BME280;58450;52.150;4.466;2023-01-13T02:30:43;100172.31;;;9.53;100.00
66273;BME280;58450;52.150;4.466;2023-01-13T02:33:42;100152.44;;;9.48;100.00
66273;BME280;58450;52.150;4.466;2023-01-13T02:36:23;100127.72;;;9.59;100.00
66273;BME280;58450;52.150;4.466;2023-01-13T02:39:01;100137.19;;;9.55;100.00
66273;BME280;58450;52.150;4.466;2023-01-13T02:41:38;100134.16;;;9.65;100.00
66273;BME280;58450;52.150;4.466;2023-01-13T02:44:32;100161.84;;;9.65;100.00
66273;BME280;58450;52.150;4.466;2023-01-13T02:47:16;100144.22;;;9.56;100.00
66273;BME280;58450;52.150;4.466;2023-01-13T02:49:48;100139.88;;;9.55;100.00
66273;BME280;58450;52.150;4.466;2023-01-13T02:52:21;100133.72;;;9.61;100.00
66273;BME280;58450;52.150;4.466;2023-01-13T02:54:57;100150.31;;;9.71;100.00
66273;BME280;58450;52.150;4.466;2023-01-13T02:57:31;100171.31;;;9.61;100.00
66273;BME280;58450;52.150;4.466;2023-01-13T03:00:03;100143.81;;;9.59;100.00
66273;BME280;58450;52.150;4.466;2023-01-13T03:02:34;100160.66;;;9.74;100.00
66273;BME280;58450;52.150;4.466;2023-01-13T03:05:02;100155.03;;;9.63;100.00
66273;BME280;58450;52.150;4.466;2023-01-13T03:07:57;100163.97;;;9.76;100.00
66273;BME280;58450;52.150;4.466;2023-01-13T03:10:42;100148.63;;;9.64;100.00
66273;BME280;58450;52.150;4.466;2023-01-13T03:13:33;100152.03;;;9.51;100.00
66273;BME280;58450;52.150;4.466;2023-01-13T03:16:25;100177.16;;;9.36;100.00
66273;BME280;58450;52.150;4.466;2023-01-13T03:19:09;100156.34;;;9.45;100.00
66273;BME280;58450;52.150;4.466;2023-01-13T03:21:53;100134.13;;;9.23;100.00
66273;BME280;58450;52.150;4.466;2023-01-13T03:24:29;100165.94;;;9.26;100.00
66273;BME280;58450;52.150;4.466;2023-01-13T03:27:06;100127.34;;;9.27;100.00
66273;BME280;58450;52.150;4.466;2023-01-13T03:29:40;100139.63;;;9.14;100.00
66273;BME280;58450;52.150;4.466;2023-01-13T03:32:15;100123.53;;;9.14;100.00
66273;BME280;58450;52.150;4.466;2023-01-13T03:34:50;100126.88;;;8.95;100.00
66273;BME280;58450;52.150;4.466;2023-01-13T03:37:29;100119.66;;;8.95;100.00
66273;BME280;58450;52.150;4.466;2023-01-13T03:40:07;100107.72;;;8.98;100.00
66273;BME280;58450;52.150;4.466;2023-01-13T03:42:41;100118.97;;;8.86;100.00
66273;BME280;58450;52.150;4.466;2023-01-13T03:45:34;100111.03;;;9.00;100.00
66273;BME280;58450;52.150;4.466;2023-01-13T03:48:07;100120.09;;;8.99;100.00
66273;BME280;58450;52.150;4.466;2023-01-13T03:50:45;100119.84;;;8.94;100.00
66273;BME280;58450;52.150;4.466;2023-01-13T03:53:19;100124.69;;;9.05;100.00
66273;BME280;58450;52.150;4.466;2023-01-13T03:55:58;100123.19;;;8.96;100.00
66273;BME280;58450;52.150;4.466;2023-01-13T03:58:31;100119.50;;;9.04;100.00
66273;BME280;58450;52.150;4.466;2023-01-13T04:01:08;100158.56;;;9.06;100.00
66273;BME280;58450;52.150;4.466;2023-01-13T04:03:45;100131.13;;;9.11;100.00
66273;BME280;58450;52.150;4.466;2023-01-13T04:06:24;100154.84;;;9.07;100.00
66273;BME280;58450;52.150;4.466;2023-01-13T04:09:06;100141.69;;;9.12;100.00
66273;BME280;58450;52.150;4.466;2023-01-13T04:11:43;100133.38;;;9.07;100.00
66273;BME280;58450;52.150;4.466;2023-01-13T04:14:18;100132.34;;;9.08;100.00
66273;BME280;58450;52.150;4.466;2023-01-13T04:16:48;100125.59;;;9.19;100.00
66273;BME280;58450;52.150;4.466;2023-01-13T04:19:15;100133.38;;;9.07;100.00
66273;BME280;58450;52.150;4.466;2023-01-13T04:21:44;100130.88;;;9.06;100.00
66273;BME280;58450;52.150;4.466;2023-01-13T04:24:12;100119.19;;;9.13;100.00
66273;BME280;58450;52.150;4.466;2023-01-13T04:26:39;100126.34;;;9.06;100.00
66273;BME280;58450;52.150;4.466;2023-01-13T04:29:07;100123.94;;;8.90;100.00
66273;BME280;58450;52.150;4.466;2023-01-13T04:31:34;100121.81;;;9.07;100.00
66273;BME280;58450;52.150;4.466;2023-01-13T04:34:03;100136.63;;;9.02;100.00
66273;BME280;58450;52.150;4.466;2023-01-13T04:36:30;100162.53;;;9.10;100.00
66273;BME280;58450;52.150;4.466;2023-01-13T04:38:59;100159.06;;;9.16;100.00
66273;BME280;58450;52.150;4.466;2023-01-13T04:41:26;100168.00;;;9.24;100.00
66273;BME280;58450;52.150;4.466;2023-01-13T04:44:14;100143.66;;;9.32;100.00
66273;BME280;58450;52.150;4.466;2023-01-13T04:46:41;100142.31;;;9.14;100.00
66273;BME280;58450;52.150;4.466;2023-01-13T04:49:09;100173.69;;;9.14;100.00
66273;BME280;58450;52.150;4.466;2023-01-13T04:51:36;100141.38;;;9.00;100.00
66273;BME280;58450;52.150;4.466;2023-01-13T04:54:05;100158.59;;;9.13;100.00
66273;BME280;58450;52.150;4.466;2023-01-13T04:56:32;100128.75;;;9.23;100.00
66273;BME280;58450;52.150;4.466;2023-01-13T04:59:00;100166.03;;;8.89;100.00
66273;BME280;58450;52.150;4.466;2023-01-13T05:01:27;100139.91;;;8.98;100.00
66273;BME280;58450;52.150;4.466;2023-01-13T05:03:55;100177.16;;;8.86;100.00
66273;BME280;58450;52.150;4.466;2023-01-13T05:06:22;100154.75;;;8.94;100.00
66273;BME280;58450;52.150;4.466;2023-01-13T05:08:50;100131.53;;;8.86;100.00
66273;BME280;58450;52.150;4.466;2023-01-13T05:11:18;100191.38;;;8.80;100.00
66273;BME280;58450;52.150;4.466;2023-01-13T05:14:03;100151.84;;;8.95;100.00
66273;BME280;58450;52.150;4.466;2023-01-13T05:16:50;100129.44;;;9.03;100.00
66273;BME280;58450;52.150;4.466;2023-01-13T05:19:26;100181.84;;;8.77;100.00
66273;BME280;58450;52.150;4.466;2023-01-13T05:21:54;100138.19;;;8.90;100.00
66273;BME280;58450;52.150;4.466;2023-01-13T05:24:40;100144.72;;;8.81;100.00
66273;BME280;58450;52.150;4.466;2023-01-13T05:27:26;100161.00;;;8.79;100.00
66273;BME280;58450;52.150;4.466;2023-01-13T05:29:54;100162.03;;;8.78;100.00
66273;BME280;58450;52.150;4.466;2023-01-13T05:32:23;100141.16;;;8.74;100.00
66273;BME280;58450;52.150;4.466;2023-01-13T05:34:52;100160.75;;;8.74;100.00
66273;BME280;58450;52.150;4.466;2023-01-13T05:37:21;100126.41;;;8.91;100.00
66273;BME280;58450;52.150;4.466;2023-01-13T05:39:49;100120.25;;;8.91;100.00
66273;BME280;58450;52.150;4.466;2023-01-13T05:42:35;100135.19;;;8.78;100.00
66273;BME280;58450;52.150;4.466;2023-01-13T05:45:20;100147.09;;;8.69;100.00
66273;BME280;58450;52.150;4.466;2023-01-13T05:47:48;100172.13;;;8.76;100.00
66273;BME280;58450;52.150;4.466;2023-01-13T05:50:16;100137.38;;;8.90;100.00
66273;BME280;58450;52.150;4.466;2023-01-13T05:52:44;100162.31;;;8.90;100.00
66273;BME280;58450;52.150;4.466;2023-01-13T05:55:12;100173.28;;;8.89;100.00
66273;BME280;58450;52.150;4.466;2023-01-13T05:57:41;100160.28;;;8.92;100.00
66273;BME280;58450;52.150;4.466;2023-01-13T06:00:09;100220.56;;;8.90;100.00
66273;BME280;58450;52.150;4.466;2023-01-13T06:02:37;100189.81;;;8.92;100.00
66273;BME280;58450;52.150;4.466;2023-01-13T06:05:05;100190.13;;;8.82;100.00
66273;BME280;58450;52.150;4.466;2023-01-13T06:07:33;100156.16;;;8.90;100.00
66273;BME280;58450;52.150;4.466;2023-01-13T06:10:01;100165.47;;;8.94;100.00
66273;BME280;58450;52.150;4.466;2023-01-13T06:12:28;100207.81;;;8.98;100.00
66273;BME280;58450;52.150;4.466;2023-01-13T06:14:57;100182.84;;;8.98;100.00
66273;BME280;58450;52.150;4.466;2023-01-13T06:17:24;100170.63;;;8.95;100.00
66273;BME280;58450;52.150;4.466;2023-01-13T06:19:52;100180.03;;;9.06;100.00
66273;BME280;58450;52.150;4.466;2023-01-13T06:22:22;100177.91;;;9.01;100.00
66273;BME280;58450;52.150;4.466;2023-01-13T06:24:53;100173.81;;;9.06;100.00
66273;BME280;58450;52.150;4.466;2023-01-13T06:27:21;100156.16;;;9.18;100.00
66273;BME280;58450;52.150;4.466;2023-01-13T06:29:49;100193.59;;;8.98;100.00
66273;BME280;58450;52.150;4.466;2023-01-13T06:32:22;100189.38;;;9.10;100.00
66273;BME280;58450;52.150;4.466;2023-01-13T06:34:59;100176.25;;;9.00;100.00
66273;BME280;58450;52.150;4.466;2023-01-13T06:37:29;100220.47;;;9.05;100.00
66273;BME280;58450;52.150;4.466;2023-01-13T06:40:00;100171.34;;;9.04;100.00
66273;BME280;58450;52.150;4.466;2023-01-13T06:42:31;100208.06;;;9.04;100.00
66273;BME280;58450;52.150;4.466;2023-01-13T06:45:20;100239.97;;;9.13;100.00
66273;BME280;58450;52.150;4.466;2023-01-13T06:47:51;100203.03;;;8.94;100.00
66273;BME280;58450;52.150;4.466;2023-01-13T06:50:19;100181.81;;;8.99;100.00
66273;BME280;58450;52.150;4.466;2023-01-13T06:52:47;100237.97;;;9.00;100.00
66273;BME280;58450;52.150;4.466;2023-01-13T06:55:14;100198.50;;;8.94;100.00
66273;BME280;58450;52.150;4.466;2023-01-13T06:57:49;100193.44;;;9.06;100.00
66273;BME280;58450;52.150;4.466;2023-01-13T07:00:18;100182.25;;;9.02;100.00
66273;BME280;58450;52.150;4.466;2023-01-13T07:02:47;100245.50;;;8.90;100.00
66273;BME280;58450;52.150;4.466;2023-01-13T07:05:17;100197.34;;;9.04;100.00
66273;BME280;58450;52.150;4.466;2023-01-13T07:07:45;100209.09;;;9.02;100.00
66273;BME280;58450;52.150;4.466;2023-01-13T07:10:14;100206.31;;;8.67;100.00
66273;BME280;58450;52.150;4.466;2023-01-13T07:12:48;100210.97;;;8.80;100.00
66273;BME280;58450;52.150;4.466;2023-01-13T07:15:34;100185.72;;;8.96;100.00
66273;BME280;58450;52.150;4.466;2023-01-13T07:18:02;100236.97;;;8.80;100.00
66273;BME280;58450;52.150;4.466;2023-01-13T07:20:31;100204.63;;;8.88;100.00
66273;BME280;58450;52.150;4.466;2023-01-13T07:22:58;100205.00;;;8.85;100.00
66273;BME280;58450;52.150;4.466;2023-01-13T07:25:26;100203.16;;;8.85;100.00
66273;BME280;58450;52.150;4.466;2023-01-13T07:27:56;100221.75;;;8.87;100.00
66273;BME280;58450;52.150;4.466;2023-01-13T07:30:24;100218.69;;;8.90;100.00
66273;BME280;58450;52.150;4.466;2023-01-13T07:32:51;100217.59;;;8.84;100.00
66273;BME280;58450;52.150;4.466;2023-01-13T07:35:19;100202.47;;;8.77;100.00
66273;BME280;58450;52.150;4.466;2023-01-13T07:37:49;100255.03;;;8.71;100.00
66273;BME280;58450;52.150;4.466;2023-01-13T07:40:17;100247.34;;;8.68;100.00
66273;BME280;58450;52.150;4.466;2023-01-13T07:42:44;100237.66;;;8.67;100.00
66273;BME280;58450;52.150;4.466;2023-01-13T07:45:35;100225.00;;;8.61;100.00
66273;BME280;58450;52.150;4.466;2023-01-13T07:48:02;100226.16;;;8.73;100.00
66273;BME280;58450;52.150;4.466;2023-01-13T07:50:30;100265.19;;;8.76;100.00
66273;BME280;58450;52.150;4.466;2023-01-13T07:52:59;100237.78;;;8.80;100.00
66273;BME280;58450;52.150;4.466;2023-01-13T07:55:27;100229.59;;;8.67;100.00
66273;BME280;58450;52.150;4.466;2023-01-13T07:57:54;100241.22;;;8.74;100.00
66273;BME280;58450;52.150;4.466;2023-01-13T08:00:22;100265.22;;;8.61;100.00
66273;BME280;58450;52.150;4.466;2023-01-13T08:02:50;100220.78;;;8.73;100.00
66273;BME280;58450;52.150;4.466;2023-01-13T08:05:17;100222.91;;;8.78;100.00
66273;BME280;58450;52.150;4.466;2023-01-13T08:07:45;100279.84;;;8.28;100.00
66273;BME280;58450;52.150;4.466;2023-01-13T08:10:14;100277.06;;;8.36;100.00
66273;BME280;58450;52.150;4.466;2023-01-13T08:12:42;100261.91;;;8.43;100.00
66273;BME280;58450;52.150;4.466;2023-01-13T08:15:27;100281.69;;;8.42;100.00
66273;BME280;58450;52.150;4.466;2023-01-13T08:17:55;100262.53;;;8.61;100.00
66273;BME280;58450;52.150;4.466;2023-01-13T08:20:24;100266.06;;;8.61;100.00
66273;BME280;58450;52.150;4.466;2023-01-13T08:22:54;100299.34;;;8.67;100.00
66273;BME280;58450;52.150;4.466;2023-01-13T08:25:24;100262.56;;;8.82;100.00
66273;BME280;58450;52.150;4.466;2023-01-13T08:27:52;100252.28;;;8.86;100.00
66273;BME280;58450;52.150;4.466;2023-01-13T08:30:21;100269.19;;;8.65;100.00
66273;BME280;58450;52.150;4.466;2023-01-13T08:32:49;100306.56;;;8.51;100.00
66273;BME280;58450;52.150;4.466;2023-01-13T08:35:17;100278.16;;;8.72;100.00
66273;BME280;58450;52.150;4.466;2023-01-13T08:37:45;100282.72;;;8.56;100.00
66273;BME280;58450;52.150;4.466;2023-01-13T08:40:14;100302.59;;;8.99;100.00
66273;BME280;58450;52.150;4.466;2023-01-13T08:42:45;100294.47;;;9.14;100.00
66273;BME280;58450;52.150;4.466;2023-01-13T08:45:13;100294.47;;;9.14;100.00
66273;BME280;58450;52.150;4.466;2023-01-13T08:47:40;100323.56;;;9.10;100.00
66273;BME280;58450;52.150;4.466;2023-01-13T08:50:09;100319.28;;;9.16;100.00
66273;BME280;58450;52.150;4.466;2023-01-13T08:52:37;100341.66;;;9.23;100.00
66273;BME280;58450;52.150;4.466;2023-01-13T08:55:06;100327.91;;;9.11;100.00
66273;BME280;58450;52.150;4.466;2023-01-13T08:57:34;100319.75;;;9.20;100.00
66273;BME280;58450;52.150;4.466;2023-01-13T09:00:04;100327.97;;;9.18;100.00
66273;BME280;58450;52.150;4.466;2023-01-13T09:02:34;100312.78;;;9.25;100.00
66273;BME280;58450;52.150;4.466;2023-01-13T09:05:03;100331.63;;;9.32;100.00
66273;BME280;58450;52.150;4.466;2023-01-13T09:07:33;100349.13;;;9.28;100.00
66273;BME280;58450;52.150;4.466;2023-01-13T09:10:01;100303.56;;;9.35;100.00
66273;BME280;58450;52.150;4.466;2023-01-13T09:12:29;100331.13;;;9.22;100.00
66273;BME280;58450;52.150;4.466;2023-01-13T09:15:15;100326.03;;;9.27;100.00
66273;BME280;58450;52.150;4.466;2023-01-13T09:17:43;100334.13;;;9.34;100.00
66273;BME280;58450;52.150;4.466;2023-01-13T09:20:12;100341.06;;;9.28;100.00
66273;BME280;58450;52.150;4.466;2023-01-13T09:22:40;100339.63;;;9.25;100.00
66273;BME280;58450;52.150;4.466;2023-01-13T09:25:08;100342.75;;;9.29;100.00
66273;BME280;58450;52.150;4.466;2023-01-13T09:27:37;100399.00;;;9.37;100.00
66273;BME280;58450;52.150;4.466;2023-01-13T09:30:06;100360.78;;;9.35;100.00
66273;BME280;58450;52.150;4.466;2023-01-13T09:32:36;100365.75;;;9.38;100.00
66273;BME280;58450;52.150;4.466;2023-01-13T09:35:05;100336.94;;;9.47;100.00
66273;BME280;58450;52.150;4.466;2023-01-13T09:37:35;100374.16;;;9.28;100.00
66273;BME280;58450;52.150;4.466;2023-01-13T09:40:06;100385.03;;;9.42;100.00
66273;BME280;58450;52.150;4.466;2023-01-13T09:42:42;100402.47;;;9.31;100.00
66273;BME280;58450;52.150;4.466;2023-01-13T09:45:32;100368.19;;;9.33;100.00
66273;BME280;58450;52.150;4.466;2023-01-13T09:48:12;100367.22;;;9.19;100.00
66273;BME280;58450;52.150;4.466;2023-01-13T09:50:53;100373.63;;;9.18;100.00
66273;BME280;58450;52.150;4.466;2023-01-13T09:53:29;100396.84;;;9.26;100.00
66273;BME280;58450;52.150;4.466;2023-01-13T09:56:00;100422.59;;;9.20;100.00
66273;BME280;58450;52.150;4.466;2023-01-13T09:58:27;100448.16;;;9.16;100.00
66273;BME280;58450;52.150;4.466;2023-01-13T10:01:03;100401.47;;;9.17;100.00
66273;BME280;58450;52.150;4.466;2023-01-13T10:03:43;100423.34;;;9.14;100.00
66273;BME280;58450;52.150;4.466;2023-01-13T10:06:14;100430.31;;;9.08;100.00
66273;BME280;58450;52.150;4.466;2023-01-13T10:08:46;100414.63;;;9.12;100.00
66273;BME280;58450;52.150;4.466;2023-01-13T10:11:17;100386.50;;;9.23;100.00
66273;BME280;58450;52.150;4.466;2023-01-13T10:14:11;100399.00;;;9.15;100.00
66273;BME280;58450;52.150;4.466;2023-01-13T10:16:47;100425.00;;;9.15;100.00
66273;BME280;58450;52.150;4.466;2023-01-13T10:19:25;100427.53;;;8.86;100.00
66273;BME280;58450;52.150;4.466;2023-01-13T10:22:12;100442.06;;;9.07;100.00
66273;BME280;58450;52.150;4.466;2023-01-13T10:25:16;100436.75;;;9.14;100.00
66273;BME280;58450;52.150;4.466;2023-01-13T10:27:52;100436.22;;;9.04;100.00
66273;BME280;58450;52.150;4.466;2023-01-13T10:30:23;100438.91;;;9.19;100.00
66273;BME280;58450;52.150;4.466;2023-01-13T10:32:57;100448.63;;;9.20;100.00
66273;BME280;58450;52.150;4.466;2023-01-13T10:35:51;100458.19;;;9.29;100.00
66273;BME280;58450;52.150;4.466;2023-01-13T10:38:23;100506.47;;;9.22;100.00
66273;BME280;58450;52.150;4.466;2023-01-13T10:40:53;100451.00;;;9.29;100.00
66273;BME280;58450;52.150;4.466;2023-01-13T10:43:23;100454.00;;;9.20;100.00
66273;BME280;58450;52.150;4.466;2023-01-13T10:45:59;100459.66;;;9.46;100.00
66273;BME280;58450;52.150;4.466;2023-01-13T10:48:35;100449.22;;;9.37;100.00
66273;BME280;58450;52.150;4.466;2023-01-13T10:51:26;100501.09;;;9.22;100.00
66273;BME280;58450;52.150;4.466;2023-01-13T10:53:58;100489.03;;;9.33;100.00
66273;BME280;58450;52.150;4.466;2023-01-13T10:56:30;100470.72;;;9.37;100.00
66273;BME280;58450;52.150;4.466;2023-01-13T10:59:14;100445.66;;;9.51;100.00
66273;BME280;58450;52.150;4.466;2023-01-13T11:01:55;100472.63;;;9.43;100.00
66273;BME280;58450;52.150;4.466;2023-01-13T11:04:31;100501.16;;;9.44;100.00
66273;BME280;58450;52.150;4.466;2023-01-13T11:07:05;100521.34;;;9.40;100.00
66273;BME280;58450;52.150;4.466;2023-01-13T11:09:47;100488.91;;;9.56;100.00
66273;BME280;58450;52.150;4.466;2023-01-13T11:12:30;100500.97;;;9.45;100.00
66273;BME280;58450;52.150;4.466;2023-01-13T11:15:01;100521.16;;;9.41;100.00
66273;BME280;58450;52.150;4.466;2023-01-13T11:17:36;100503.00;;;9.43;100.00
66273;BME280;58450;52.150;4.466;2023-01-13T11:20:18;100538.22;;;9.34;100.00
66273;BME280;58450;52.150;4.466;2023-01-13T11:22:58;100494.22;;;9.35;100.00
66273;BME280;58450;52.150;4.466;2023-01-13T11:25:31;100496.91;;;9.35;100.00
66273;BME280;58450;52.150;4.466;2023-01-13T11:28:20;100539.50;;;9.38;100.00
66273;BME280;58450;52.150;4.466;2023-01-13T11:31:09;100540.28;;;9.68;100.00
66273;BME280;58450;52.150;4.466;2023-01-13T11:33:46;100497.25;;;9.61;100.00
66273;BME280;58450;52.150;4.466;2023-01-13T11:36:23;100576.47;;;9.36;100.00
66273;BME280;58450;52.150;4.466;2023-01-13T11:38:57;100555.97;;;9.50;100.00
66273;BME280;58450;52.150;4.466;2023-01-13T11:41:41;100516.06;;;9.46;100.00
66273;BME280;58450;52.150;4.466;2023-01-13T11:44:18;100523.78;;;9.35;100.00
66273;BME280;58450;52.150;4.466;2023-01-13T11:46:49;100509.44;;;9.27;100.00
66273;BME280;58450;52.150;4.466;2023-01-13T11:49:23;100518.53;;;9.63;100.00
66273;BME280;58450;52.150;4.466;2023-01-13T11:51:58;100554.69;;;9.45;100.00
66273;BME280;58450;52.150;4.466;2023-01-13T11:54:46;100541.19;;;9.39;100.00
66273;BME280;58450;52.150;4.466;2023-01-13T11:57:40;100557.00;;;9.49;100.00
66273;BME280;58450;52.150;4.466;2023-01-13T12:00:38;100530.97;;;9.34;100.00
66273;BME280;58450;52.150;4.466;2023-01-13T12:03:26;100547.09;;;9.34;100.00
66273;BME280;58450;52.150;4.466;2023-01-13T12:06:13;100551.44;;;9.50;100.00
66273;BME280;58450;52.150;4.466;2023-01-13T12:09:01;100578.41;;;9.42;100.00
66273;BME280;58450;52.150;4.466;2023-01-13T12:11:46;100578.09;;;9.52;100.00
66273;BME280;58450;52.150;4.466;2023-01-13T12:14:49;100552.81;;;9.61;100.00
66273;BME280;58450;52.150;4.466;2023-01-13T12:17:33;100560.53;;;9.49;100.00
66273;BME280;58450;52.150;4.466;2023-01-13T12:20:18;100580.78;;;9.52;100.00
66273;BME280;58450;52.150;4.466;2023-01-13T12:22:59;100592.00;;;9.40;100.00
66273;BME280;58450;52.150;4.466;2023-01-13T12:25:36;100585.91;;;9.46;100.00
66273;BME280;58450;52.150;4.466;2023-01-13T12:28:14;100597.19;;;9.57;100.00
66273;BME280;58450;52.150;4.466;2023-01-13T12:30:48;100570.06;;;9.67;100.00
66273;BME280;58450;52.150;4.466;2023-01-13T12:33:27;100612.59;;;9.48;100.00
66273;BME280;58450;52.150;4.466;2023-01-13T12:36:08;100596.81;;;9.60;100.00
66273;BME280;58450;52.150;4.466;2023-01-13T12:38:44;100579.03;;;9.59;100.00
66273;BME280;58450;52.150;4.466;2023-01-13T12:41:23;100597.81;;;9.74;100.00
66273;BME280;58450;52.150;4.466;2023-01-13T12:44:01;100608.84;;;9.64;100.00
66273;BME280;58450;52.150;4.466;2023-01-13T12:46:50;100624.69;;;9.74;100.00
66273;BME280;58450;52.150;4.466;2023-01-13T12:49:27;100607.16;;;9.78;100.00
66273;BME280;58450;52.150;4.466;2023-01-13T12:52:14;100649.63;;;9.68;100.00
66273;BME280;58450;52.150;4.466;2023-01-13T12:55:05;100629.16;;;9.52;100.00
66273;BME280;58450;52.150;4.466;2023-01-13T12:57:38;100607.00;;;9.80;100.00
66273;BME280;58450;52.150;4.466;2023-01-13T13:00:15;100648.97;;;9.51;100.00
66273;BME280;58450;52.150;4.466;2023-01-13T13:06:00;100638.69;;;9.69;100.00
66273;BME280;58450;52.150;4.466;2023-01-13T13:08:45;100645.63;;;9.79;100.00
66273;BME280;58450;52.150;4.466;2023-01-13T13:11:40;100638.91;;;9.68;100.00
66273;BME280;58450;52.150;4.466;2023-01-13T13:15:00;100642.69;;;9.73;100.00
66273;BME280;58450;52.150;4.466;2023-01-13T13:18:03;100677.13;;;9.55;100.00
66273;BME280;58450;52.150;4.466;2023-01-13T13:20:55;100651.84;;;9.49;100.00
66273;BME280;58450;52.150;4.466;2023-01-13T13:23:26;100678.59;;;9.42;100.00
66273;BME280;58450;52.150;4.466;2023-01-13T13:26:06;100670.66;;;9.49;100.00
66273;BME280;58450;52.150;4.466;2023-01-13T13:28:48;100666.41;;;9.55;100.00
66273;BME280;58450;52.150;4.466;2023-01-13T13:31:36;100682.72;;;9.53;100.00
66273;BME280;58450;52.150;4.466;2023-01-13T13:34:27;100717.94;;;9.35;100.00